Time,TemperatureF,DewpointF,PressureIn,WindDirection,WindDirectionDegrees,WindSpeedMPH,WindSpeedGustMPH,Humidity,HourlyPrecipIn,Conditions,Clouds,dailyrainin,SoftwareType,DateUTC
2013-07-21 00:02:00,75.2,71.1,30.01,ENE,68,6.0,6.9,87,0.00,RA,,0.00,WeatherDisplay:10.37,2013-07-21 10:02:00,
2013-07-21 00:07:00,75.2,71.1,30.01,SE,135,3.2,5.8,87,0.00,RA,,0.00,WeatherDisplay:10.37,2013-07-21 10:07:00,
2013-07-21 00:12:00,75.6,71.8,30.00,ESE,112,3.2,4.6,88,0.00,CLR,,0.00,WeatherDisplay:10.37,2013-07-21 10:12:00,
2013-07-21 00:17:00,75.6,71.8,30.00,NE,45,4.8,5.8,88,0.00,CLR,,0.00,WeatherDisplay:10.37,2013-07-21 10:17:00,
2013-07-21 00:22:00,75.6,71.8,30.00,ESE,112,2.9,3.5,88,0.00,CLR,,0.00,WeatherDisplay:10.37,2013-07-21 10:22:00,
2013-07-21 00:27:00,75.6,71.8,30.00,South,180,2.4,3.5,88,0.00,CLR,,0.00,WeatherDisplay:10.37,2013-07-21 10:27:00,
2013-07-21 00:32:00,75.6,72.1,30.00,South,180,1.6,1.7,89,0.00,CLR,,0.00,WeatherDisplay:10.37,2013-07-21 10:32:00,
2013-07-21 00:38:00,75.6,72.1,29.99,South,180,0.0,0.0,89,0.00,CLR,,0.00,WeatherDisplay:10.37,2013-07-21 10:38:00,
2013-07-21 00:43:00,75.6,72.1,29.99,WNW,292,0.0,0.0,89,0.00,CLR,,0.00,WeatherDisplay:10.37,2013-07-21 10:43:00,
2013-07-21 00:48:00,75.4,71.9,29.99,WSW,248,1.9,2.3,89,0.00,CLR,,0.00,WeatherDisplay:10.37,2013-07-21 10:48:00,
2013-07-21 00:53:00,75.4,71.9,29.99,SSE,158,2.6,3.7,89,0.00,CLR,,0.00,WeatherDisplay:10.37,2013-07-21 10:53:00,
2013-07-21 00:58:00,75.4,71.9,29.99,SW,225,0.8,2.7,89,0.00,CLR,,0.00,WeatherDisplay:10.37,2013-07-21 10:58:00,
2013-07-21 01:03:00,75.6,72.5,29.98,WNW,292,2.4,3.2,90,0.00,CLR,,0.00,WeatherDisplay:10.37,2013-07-21 11:03:00,
2013-07-21 01:08:00,75.4,72.3,29.98,ESE,112,2.3,2.3,90,0.00,CLR,,0.00,WeatherDisplay:10.37,2013-07-21 11:08:00,
2013-07-21 01:13:00,75.4,72.3,29.98,NNW,338,2.6,3.5,90,0.00,CLR,,0.00,WeatherDisplay:10.37,2013-07-21 11:13:00,
2013-07-21 01:18:00,75.6,72.5,29.98,East,90,4.8,6.9,90,0.00,CLR,,0.00,WeatherDisplay:10.37,2013-07-21 11:18:00,
2013-07-21 01:23:00,75.6,72.5,29.98,South,180,4.5,5.8,90,0.00,CLR,,0.00,WeatherDisplay:10.37,2013-07-21 11:23:00,
2013-07-21 01:28:00,75.6,71.8,29.98,SE,135,2.9,4.6,88,0.00,CLR,,0.00,WeatherDisplay:10.37,2013-07-21 11:28:00,
2013-07-21 01:33:00,75.6,71.8,29.98,ESE,112,0.6,3.5,88,0.00,CLR,,0.00,WeatherDisplay:10.37,2013-07-21 11:33:00,
2013-07-21 01:38:00,75.7,71.9,29.98,NNE,22,3.0,4.6,88,0.00,CLR,,0.00,WeatherDisplay:10.37,2013-07-21 11:38:00,
2013-07-21 01:43:00,75.7,71.9,29.98,WSW,248,2.5,3.2,88,0.00,CLR,,0.00,WeatherDisplay:10.37,2013-07-21 11:43:00,
2013-07-21 01:48:00,75.6,71.8,29.98,ESE,112,3.8,4.6,88,0.00,CLR,,0.00,WeatherDisplay:10.37,2013-07-21 11:48:00,
2013-07-21 01:54:00,75.4,71.6,29.98,SSE,158,4.6,6.9,88,0.00,CLR,,0.00,WeatherDisplay:10.37,2013-07-21 11:54:00,
2013-07-21 01:59:00,75.4,71.6,29.98,East,90,0.2,2.3,88,0.00,CLR,,0.00,WeatherDisplay:10.37,2013-07-21 11:59:00,
2013-07-21 02:04:00,75.4,71.6,29.97,East,90,3.7,4.6,88,0.00,CLR,,0.00,WeatherDisplay:10.37,2013-07-21 12:04:00,
2013-07-21 02:09:00,75.6,71.8,29.97,ESE,112,3.7,5.8,88,0.00,CLR,,0.00,WeatherDisplay:10.37,2013-07-21 12:09:00,
2013-07-21 02:14:00,75.9,71.8,29.97,NNE,22,5.7,6.9,87,0.00,CLR,,0.00,WeatherDisplay:10.37,2013-07-21 12:14:00,
2013-07-21 02:19:00,75.9,71.8,29.97,North,360,3.9,5.8,87,0.00,CLR,,0.00,WeatherDisplay:10.37,2013-07-21 12:19:00,
2013-07-21 02:24:00,75.7,71.6,29.96,SSE,158,1.9,3.2,87,0.00,CLR,,0.00,WeatherDisplay:10.37,2013-07-21 12:24:00,
2013-07-21 02:29:00,75.6,71.1,29.96,ESE,112,2.8,3.5,86,0.00,CLR,,0.00,WeatherDisplay:10.37,2013-07-21 12:29:00,
2013-07-21 02:34:00,75.4,70.9,29.96,East,90,2.2,4.6,86,0.00,CLR,,0.00,WeatherDisplay:10.37,2013-07-21 12:34:00,
2013-07-21 02:39:00,75.6,71.1,29.96,NE,45,2.5,3.5,86,0.00,CLR,,0.00,WeatherDisplay:10.37,2013-07-21 12:39:00,
2013-07-21 02:44:00,75.6,71.1,29.96,South,180,1.8,3.5,86,0.00,CLR,,0.00,WeatherDisplay:10.37,2013-07-21 12:44:00,
2013-07-21 02:49:00,75.6,71.1,29.95,WNW,292,1.0,1.7,86,0.00,CLR,,0.00,WeatherDisplay:10.37,2013-07-21 12:49:00,
2013-07-21 02:54:00,75.6,71.1,29.95,ESE,112,3.5,3.7,86,0.00,CLR,,0.00,WeatherDisplay:10.37,2013-07-21 12:54:00,
2013-07-21 02:59:00,75.7,71.2,29.95,NE,45,2.0,3.2,86,0.00,CLR,,0.00,WeatherDisplay:10.37,2013-07-21 12:59:00,
2013-07-21 03:05:00,75.7,71.2,29.95,ESE,112,1.0,3.5,86,0.00,CLR,,0.00,WeatherDisplay:10.37,2013-07-21 13:05:00,
2013-07-21 03:10:00,75.7,71.2,29.95,North,360,4.1,5.8,86,0.00,CLR,,0.00,WeatherDisplay:10.37,2013-07-21 13:10:00,
2013-07-21 03:15:00,75.7,71.2,29.95,North,360,2.2,2.7,86,0.00,CLR,,0.00,WeatherDisplay:10.37,2013-07-21 13:15:00,
2013-07-21 03:20:00,75.7,71.2,29.95,West,270,0.0,0.0,86,0.00,CLR,,0.00,WeatherDisplay:10.37,2013-07-21 13:20:00,
2013-07-21 03:25:00,75.9,71.4,29.94,ESE,112,2.9,4.6,86,0.00,CLR,,0.00,WeatherDisplay:10.37,2013-07-21 13:25:00,
2013-07-21 03:30:00,75.9,71.1,29.94,West,270,4.9,5.8,85,0.00,CLR,,0.00,WeatherDisplay:10.37,2013-07-21 13:30:00,
2013-07-21 03:35:00,75.9,70.7,29.94,ESE,112,6.4,9.2,84,0.00,CLR,,0.00,WeatherDisplay:10.37,2013-07-21 13:35:00,
2013-07-21 03:40:00,75.9,70.7,29.94,SE,135,4.7,7.8,84,0.00,CLR,,0.00,WeatherDisplay:10.37,2013-07-21 13:40:00,
2013-07-21 03:45:00,75.9,70.7,29.94,NE,45,3.4,4.7,84,0.00,CLR,,0.00,WeatherDisplay:10.37,2013-07-21 13:45:00,
2013-07-21 03:50:00,75.9,70.7,29.95,North,360,3.0,3.5,84,0.00,CLR,,0.00,WeatherDisplay:10.37,2013-07-21 13:50:00,
2013-07-21 03:55:00,75.7,70.5,29.95,East,90,3.8,8.1,84,0.00,CLR,,0.00,WeatherDisplay:10.37,2013-07-21 13:55:00,
2013-07-21 04:00:00,75.7,70.5,29.94,West,270,2.8,3.5,84,0.00,CLR,,0.00,WeatherDisplay:10.37,2013-07-21 14:00:00,
2013-07-21 04:05:00,75.7,70.5,29.94,South,180,0.6,2.3,84,0.00,CLR,,0.00,WeatherDisplay:10.37,2013-07-21 14:05:00,
2013-07-21 04:10:00,75.7,70.5,29.94,WNW,292,0.0,0.0,84,0.00,CLR,,0.00,WeatherDisplay:10.37,2013-07-21 14:10:00,
2013-07-21 04:15:00,75.7,70.5,29.94,NE,45,2.2,2.3,84,0.00,CLR,,0.00,WeatherDisplay:10.37,2013-07-21 14:15:00,
2013-07-21 04:21:00,75.7,70.5,29.94,SE,135,3.8,4.6,84,0.00,CLR,,0.00,WeatherDisplay:10.37,2013-07-21 14:21:00,
2013-07-21 04:26:00,75.7,70.5,29.94,ENE,68,0.0,0.0,84,0.00,CLR,,0.00,WeatherDisplay:10.37,2013-07-21 14:26:00,
2013-07-21 04:31:00,75.7,70.5,29.94,ESE,112,0.0,0.0,84,0.00,CLR,,0.00,WeatherDisplay:10.37,2013-07-21 14:31:00,
2013-07-21 04:36:00,75.7,70.9,29.94,SE,135,6.6,6.9,85,0.00,CLR,,0.00,WeatherDisplay:10.37,2013-07-21 14:36:00,
2013-07-21 04:41:00,75.7,70.5,29.94,ESE,112,2.8,4.6,84,0.00,CLR,,0.00,WeatherDisplay:10.37,2013-07-21 14:41:00,
2013-07-21 04:46:00,75.7,70.5,29.94,South,180,3.2,3.7,84,0.00,CLR,,0.00,WeatherDisplay:10.37,2013-07-21 14:46:00,
2013-07-21 04:51:00,75.7,70.5,29.95,SSE,158,4.3,5.8,84,0.00,CLR,,0.00,WeatherDisplay:10.37,2013-07-21 14:51:00,
2013-07-21 04:56:00,75.9,70.7,29.95,SSE,158,2.0,3.5,84,0.00,CLR,,0.00,WeatherDisplay:10.37,2013-07-21 14:56:00,
2013-07-21 05:01:00,75.7,70.5,29.94,ENE,68,1.5,2.7,84,0.00,CLR,,0.00,WeatherDisplay:10.37,2013-07-21 15:01:00,
2013-07-21 05:06:00,75.7,70.5,29.94,East,90,0.9,2.2,84,0.00,CLR,,0.00,WeatherDisplay:10.37,2013-07-21 15:06:00,
2013-07-21 05:11:00,75.7,70.5,29.94,ESE,112,0.3,2.7,84,0.00,CLR,,0.00,WeatherDisplay:10.37,2013-07-21 15:11:00,
2013-07-21 05:16:00,75.7,70.9,29.94,South,180,6.3,10.4,85,0.00,CLR,,0.03,WeatherDisplay:10.37,2013-07-21 15:16:00,
2013-07-21 05:21:00,74.8,70.7,29.94,SW,225,3.0,3.5,87,0.08,RA,,0.08,WeatherDisplay:10.37,2013-07-21 15:21:00,
2013-07-21 05:26:00,74.8,71.0,29.95,SW,225,1.3,2.3,88,0.08,RA,,0.08,WeatherDisplay:10.37,2013-07-21 15:26:00,
2013-07-21 05:31:00,74.8,71.0,29.95,ESE,112,5.8,6.3,88,0.08,CLR,,0.08,WeatherDisplay:10.37,2013-07-21 15:31:00,
2013-07-21 05:37:00,74.8,71.0,29.94,WNW,292,2.6,3.5,88,0.08,CLR,,0.08,WeatherDisplay:10.37,2013-07-21 15:37:00,
2013-07-21 05:42:00,74.7,70.9,29.94,ESE,112,3.9,4.7,88,0.08,CLR,,0.08,WeatherDisplay:10.37,2013-07-21 15:42:00,
2013-07-21 05:47:00,74.5,70.7,29.95,ESE,112,3.6,5.8,88,0.08,CLR,,0.08,WeatherDisplay:10.37,2013-07-21 15:47:00,
2013-07-21 05:52:00,74.5,70.7,29.95,SSW,202,0.0,1.2,88,0.08,CLR,,0.08,WeatherDisplay:10.37,2013-07-21 15:52:00,
2013-07-21 05:57:00,74.8,71.0,29.95,NNW,338,1.8,2.3,88,0.08,CLR,,0.08,WeatherDisplay:10.37,2013-07-21 15:57:00,
2013-07-21 06:02:00,74.8,71.0,29.95,WNW,292,2.0,2.3,88,0.08,CLR,,0.08,WeatherDisplay:10.37,2013-07-21 16:02:00,
2013-07-21 06:07:00,74.8,71.0,29.95,West,270,3.2,3.5,88,0.08,CLR,,0.08,WeatherDisplay:10.37,2013-07-21 16:07:00,
2013-07-21 06:12:00,75.0,71.5,29.95,NW,315,2.0,3.5,89,0.08,CLR,,0.09,WeatherDisplay:10.37,2013-07-21 16:12:00,
2013-07-21 06:17:00,75.0,71.5,29.95,WSW,248,1.5,3.5,89,0.06,RA,,0.09,WeatherDisplay:10.37,2013-07-21 16:17:00,
2013-07-21 06:22:00,75.0,71.5,29.95,SSE,158,2.2,2.7,89,0.01,RA,,0.09,WeatherDisplay:10.37,2013-07-21 16:22:00,
2013-07-21 06:27:00,74.7,70.9,29.96,SSW,202,3.2,6.9,88,0.01,CLR,,0.09,WeatherDisplay:10.37,2013-07-21 16:27:00,
2013-07-21 06:32:00,74.8,71.0,29.96,SSE,158,2.3,3.5,88,0.01,CLR,,0.09,WeatherDisplay:10.37,2013-07-21 16:32:00,
2013-07-21 06:37:00,75.4,71.6,29.96,ESE,112,1.1,0.0,88,0.01,CLR,,0.09,WeatherDisplay:10.37,2013-07-21 16:37:00,
2013-07-21 06:42:00,75.9,71.8,29.96,WNW,292,1.2,1.2,87,0.01,CLR,,0.09,WeatherDisplay:10.37,2013-07-21 16:42:00,
2013-07-21 06:48:00,76.8,72.6,29.96,South,180,2.8,3.5,87,0.01,CLR,,0.09,WeatherDisplay:10.37,2013-07-21 16:48:00,
2013-07-21 06:53:00,77.0,71.4,29.96,ESE,112,7.7,9.2,83,0.01,CLR,,0.09,WeatherDisplay:10.37,2013-07-21 16:53:00,
2013-07-21 06:58:00,78.1,72.5,29.96,ESE,112,2.9,4.7,83,0.01,CLR,,0.09,WeatherDisplay:10.37,2013-07-21 16:58:00,
2013-07-21 07:03:00,77.7,71.4,29.96,ESE,112,3.9,4.6,81,0.01,CLR,,0.09,WeatherDisplay:10.37,2013-07-21 17:03:00,
2013-07-21 07:08:00,77.0,70.7,29.96,SE,135,3.1,4.6,81,0.01,CLR,,0.09,WeatherDisplay:10.37,2013-07-21 17:08:00,
2013-07-21 07:13:00,77.2,70.9,29.97,ESE,112,5.7,6.9,81,0.00,CLR,,0.09,WeatherDisplay:10.37,2013-07-21 17:13:00,
2013-07-21 07:18:00,78.3,72.0,29.97,ENE,68,0.6,2.3,81,0.00,CLR,,0.09,WeatherDisplay:10.37,2013-07-21 17:18:00,
2013-07-21 07:23:00,78.1,71.4,29.97,ESE,112,3.6,4.6,80,0.00,CLR,,0.09,WeatherDisplay:10.37,2013-07-21 17:23:00,
2013-07-21 07:28:00,78.3,71.6,29.96,ENE,68,5.5,6.9,80,0.00,CLR,,0.09,WeatherDisplay:10.37,2013-07-21 17:28:00,
2013-07-21 07:33:00,78.6,71.9,29.96,North,360,3.8,4.6,80,0.00,CLR,,0.09,WeatherDisplay:10.37,2013-07-21 17:33:00,
2013-07-21 07:38:00,78.3,71.2,29.97,ENE,68,8.1,9.2,79,0.00,CLR,,0.09,WeatherDisplay:10.37,2013-07-21 17:38:00,
2013-07-21 07:43:00,79.2,71.7,29.97,East,90,5.6,8.1,78,0.00,CLR,,0.09,WeatherDisplay:10.37,2013-07-21 17:43:00,
2013-07-21 07:48:00,80.1,72.2,29.97,NE,45,8.0,8.8,77,0.00,CLR,,0.09,WeatherDisplay:10.37,2013-07-21 17:48:00,
2013-07-21 07:53:00,79.3,71.1,29.97,ENE,68,6.5,9.2,76,0.00,CLR,,0.09,WeatherDisplay:10.37,2013-07-21 17:53:00,
2013-07-21 07:58:00,79.3,70.7,29.97,ESE,112,6.0,10.4,75,0.00,CLR,,0.09,WeatherDisplay:10.37,2013-07-21 17:58:00,
2013-07-21 08:04:00,80.1,70.7,29.97,ESE,112,7.1,9.2,73,0.00,CLR,,0.09,WeatherDisplay:10.37,2013-07-21 18:04:00,
2013-07-21 08:09:00,80.4,70.9,29.97,ESE,112,8.4,10.4,73,0.00,CLR,,0.09,WeatherDisplay:10.37,2013-07-21 18:09:00,
2013-07-21 08:14:00,79.7,69.9,29.97,SE,135,7.4,10.4,72,0.00,CLR,,0.09,WeatherDisplay:10.37,2013-07-21 18:14:00,
2013-07-21 08:19:00,79.7,70.3,29.97,ENE,68,6.3,6.9,73,0.00,CLR,,0.09,WeatherDisplay:10.37,2013-07-21 18:19:00,
2013-07-21 08:24:00,79.2,70.6,29.98,East,90,7.7,8.8,75,0.00,CLR,,0.09,WeatherDisplay:10.37,2013-07-21 18:24:00,
2013-07-21 08:29:00,76.6,71.0,29.98,West,270,3.7,5.8,83,0.02,RA,,0.11,WeatherDisplay:10.37,2013-07-21 18:29:00,
2013-07-21 08:34:00,77.5,72.3,29.98,ESE,112,6.1,8.1,84,0.02,RA,,0.11,WeatherDisplay:10.37,2013-07-21 18:34:00,
2013-07-21 08:39:00,78.3,71.6,29.98,NE,45,4.8,6.9,80,0.02,,,0.11,WeatherDisplay:10.37,2013-07-21 18:39:00,
2013-07-21 08:44:00,78.6,71.2,29.98,ESE,112,9.1,10.4,78,0.02,CLR,,0.11,WeatherDisplay:10.37,2013-07-21 18:44:00,
2013-07-21 08:49:00,79.0,71.2,29.98,NE,45,7.1,8.1,77,0.02,CLR,,0.11,WeatherDisplay:10.37,2013-07-21 18:49:00,
2013-07-21 08:54:00,79.7,71.5,29.98,SSE,158,6.2,10.4,76,0.02,CLR,,0.11,WeatherDisplay:10.37,2013-07-21 18:54:00,
2013-07-21 08:59:00,80.1,70.7,29.98,ENE,68,8.3,10.4,73,0.02,CLR,,0.11,WeatherDisplay:10.37,2013-07-21 18:59:00,
2013-07-21 09:04:00,80.6,71.5,29.98,NNE,22,9.8,13.8,74,0.02,CLR,,0.11,WeatherDisplay:10.37,2013-07-21 19:04:00,
2013-07-21 09:09:00,81.0,71.9,29.98,ENE,68,6.2,13.8,74,0.02,CLR,,0.11,WeatherDisplay:10.37,2013-07-21 19:09:00,
2013-07-21 09:15:00,80.6,71.1,29.99,ESE,112,6.5,8.1,73,0.02,CLR,,0.11,WeatherDisplay:10.37,2013-07-21 19:15:00,
2013-07-21 09:20:00,80.6,71.1,29.99,ESE,112,5.8,9.2,73,0.02,CLR,,0.11,WeatherDisplay:10.37,2013-07-21 19:20:00,
2013-07-21 09:25:00,80.8,71.7,29.99,East,90,5.8,9.2,74,0.02,CLR,,0.11,WeatherDisplay:10.37,2013-07-21 19:25:00,
2013-07-21 09:30:00,81.1,71.6,29.99,South,180,5.2,5.8,73,0.00,CLR,,0.11,WeatherDisplay:10.37,2013-07-21 19:30:00,
2013-07-21 09:35:00,81.3,71.4,29.99,East,90,5.6,8.1,72,0.00,CLR,,0.11,WeatherDisplay:10.37,2013-07-21 19:35:00,
2013-07-21 09:40:00,82.0,71.7,29.98,NE,45,7.4,11.4,71,0.00,CLR,,0.11,WeatherDisplay:10.37,2013-07-21 19:40:00,
2013-07-21 09:45:00,81.9,70.7,29.98,ESE,112,7.8,11.5,69,0.00,CLR,,0.11,WeatherDisplay:10.37,2013-07-21 19:45:00,
2013-07-21 09:50:00,82.6,71.0,29.98,ESE,112,11.1,13.5,68,0.00,CLR,,0.11,WeatherDisplay:10.37,2013-07-21 19:50:00,
2013-07-21 09:55:00,81.5,70.3,29.98,ESE,112,7.0,7.8,69,0.00,CLR,,0.11,WeatherDisplay:10.37,2013-07-21 19:55:00,
2013-07-21 10:00:00,82.9,71.7,29.98,East,90,7.0,9.9,69,0.00,CLR,,0.11,WeatherDisplay:10.37,2013-07-21 20:00:00,
2013-07-21 10:05:00,82.8,71.2,29.98,ESE,112,4.7,6.9,68,0.00,CLR,,0.11,WeatherDisplay:10.37,2013-07-21 20:05:00,
2013-07-21 10:10:00,83.1,71.9,29.98,ENE,68,4.9,7.3,69,0.00,CLR,,0.11,WeatherDisplay:10.37,2013-07-21 20:10:00,
2013-07-21 10:15:00,82.9,70.8,29.98,ESE,112,6.5,11.4,67,0.00,CLR,,0.11,WeatherDisplay:10.37,2013-07-21 20:15:00,
2013-07-21 10:20:00,82.6,70.5,29.98,ESE,112,7.9,12.7,67,0.00,CLR,,0.11,WeatherDisplay:10.37,2013-07-21 20:20:00,
2013-07-21 10:25:00,83.8,71.2,29.98,ESE,112,9.2,11.5,66,0.00,CLR,,0.11,WeatherDisplay:10.37,2013-07-21 20:25:00,
2013-07-21 10:31:00,84.2,71.2,29.98,ESE,112,10.3,10.4,65,0.00,CLR,,0.11,WeatherDisplay:10.37,2013-07-21 20:31:00,
2013-07-21 10:36:00,84.0,71.4,29.97,NNE,22,6.1,6.9,66,0.00,CLR,,0.11,WeatherDisplay:10.37,2013-07-21 20:36:00,
2013-07-21 10:41:00,82.6,70.5,29.97,NNE,22,5.3,5.8,67,0.00,CLR,,0.11,WeatherDisplay:10.37,2013-07-21 20:41:00,
2013-07-21 10:46:00,81.7,71.4,29.97,ENE,68,9.0,10.4,71,0.00,CLR,,0.11,WeatherDisplay:10.37,2013-07-21 20:46:00,
2013-07-21 10:51:00,82.9,72.1,29.98,SE,135,6.8,9.2,70,0.00,CLR,,0.11,WeatherDisplay:10.37,2013-07-21 20:51:00,
2013-07-21 10:56:00,82.9,72.1,29.98,SE,135,6.3,6.3,70,0.00,CLR,,0.11,WeatherDisplay:10.37,2013-07-21 20:56:00,
2013-07-21 11:01:00,83.1,71.4,29.98,ESE,112,8.1,9.2,68,0.00,CLR,,0.11,WeatherDisplay:10.37,2013-07-21 21:01:00,
2013-07-21 11:06:00,82.2,70.1,29.98,East,90,5.7,9.2,67,0.00,CLR,,0.11,WeatherDisplay:10.37,2013-07-21 21:06:00,
2013-07-21 11:11:00,83.3,71.2,29.97,ESE,112,6.8,10.4,67,0.00,CLR,,0.11,WeatherDisplay:10.37,2013-07-21 21:11:00,
2013-07-21 11:16:00,83.3,71.2,29.97,ESE,112,10.9,13.8,67,0.00,CLR,,0.11,WeatherDisplay:10.37,2013-07-21 21:16:00,
2013-07-21 11:21:00,83.5,70.9,29.97,East,90,11.1,11.5,66,0.00,CLR,,0.11,WeatherDisplay:10.37,2013-07-21 21:21:00,
2013-07-21 11:26:00,82.9,71.3,29.97,East,90,7.5,7.5,68,0.00,CLR,,0.11,WeatherDisplay:10.37,2013-07-21 21:26:00,
2013-07-21 11:31:00,81.7,71.4,29.97,East,90,8.8,13.0,71,0.00,CLR,,0.11,WeatherDisplay:10.37,2013-07-21 21:31:00,
2013-07-21 11:36:00,82.8,71.6,29.97,North,360,6.6,9.2,69,0.00,CLR,,0.11,WeatherDisplay:10.37,2013-07-21 21:36:00,
2013-07-21 11:42:00,82.2,70.6,29.97,NE,45,8.5,10.4,68,0.00,CLR,,0.11,WeatherDisplay:10.37,2013-07-21 21:42:00,
2013-07-21 11:47:00,83.1,71.0,29.97,ESE,112,6.5,8.1,67,0.00,CLR,,0.11,WeatherDisplay:10.37,2013-07-21 21:47:00,
2013-07-21 11:52:00,83.1,70.1,29.97,ENE,68,5.7,8.1,65,0.00,CLR,,0.11,WeatherDisplay:10.37,2013-07-21 21:52:00,
2013-07-21 11:57:00,83.1,70.6,29.97,ESE,112,5.3,5.8,66,0.00,CLR,,0.11,WeatherDisplay:10.37,2013-07-21 21:57:00,
2013-07-21 12:02:00,82.4,70.3,29.97,NNE,22,6.5,8.3,67,0.00,CLR,,0.11,WeatherDisplay:10.37,2013-07-21 22:02:00,
2013-07-21 12:07:00,82.2,69.7,29.97,East,90,8.0,10.4,66,0.00,CLR,,0.11,WeatherDisplay:10.37,2013-07-21 22:07:00,
2013-07-21 12:12:00,83.1,71.0,29.96,NE,45,8.3,10.4,67,0.00,CLR,,0.11,WeatherDisplay:10.37,2013-07-21 22:12:00,
2013-07-21 12:17:00,82.0,71.2,29.96,NE,45,6.4,9.2,70,0.00,CLR,,0.11,WeatherDisplay:10.37,2013-07-21 22:17:00,
2013-07-21 12:22:00,82.6,71.0,29.96,NE,45,5.5,8.1,68,0.00,CLR,,0.11,WeatherDisplay:10.37,2013-07-21 22:22:00,
2013-07-21 12:27:00,83.1,72.7,29.96,NNE,22,7.8,9.2,71,0.00,CLR,,0.11,WeatherDisplay:10.37,2013-07-21 22:27:00,
2013-07-21 12:32:00,82.8,72.0,29.96,East,90,5.8,10.4,70,0.00,CLR,,0.11,WeatherDisplay:10.37,2013-07-21 22:32:00,
2013-07-21 12:37:00,82.0,71.2,29.95,NE,45,7.1,10.4,70,0.00,CLR,,0.11,WeatherDisplay:10.37,2013-07-21 22:37:00,
2013-07-21 12:42:00,82.2,71.9,29.95,NE,45,6.3,6.9,71,0.00,CLR,,0.11,WeatherDisplay:10.37,2013-07-21 22:42:00,
2013-07-21 12:47:00,82.2,71.9,29.95,WNW,292,5.9,5.9,71,0.00,CLR,,0.11,WeatherDisplay:10.37,2013-07-21 22:47:00,
2013-07-21 12:52:00,81.7,71.0,29.95,ENE,68,7.3,7.3,70,0.00,CLR,,0.11,WeatherDisplay:10.37,2013-07-21 22:52:00,
2013-07-21 12:58:00,82.0,71.2,29.95,North,360,5.6,8.1,70,0.00,CLR,,0.11,WeatherDisplay:10.37,2013-07-21 22:58:00,
2013-07-21 13:03:00,83.8,71.2,29.95,ESE,112,9.8,10.4,66,0.00,CLR,,0.11,WeatherDisplay:10.37,2013-07-21 23:03:00,
2013-07-21 13:08:00,84.0,70.0,29.95,NNE,22,8.6,10.4,63,0.00,CLR,,0.11,WeatherDisplay:10.37,2013-07-21 23:08:00,
2013-07-21 13:13:00,83.5,70.5,29.95,ESE,112,5.1,6.9,65,0.00,CLR,,0.11,WeatherDisplay:10.37,2013-07-21 23:13:00,
2013-07-21 13:18:00,82.2,69.3,29.95,East,90,8.8,10.4,65,0.00,CLR,,0.11,WeatherDisplay:10.37,2013-07-21 23:18:00,
2013-07-21 13:23:00,81.9,69.4,29.95,WNW,292,5.8,9.2,66,0.00,CLR,,0.11,WeatherDisplay:10.37,2013-07-21 23:23:00,
2013-07-21 13:28:00,81.9,69.4,29.94,WNW,292,5.8,5.8,66,0.00,CLR,,0.11,WeatherDisplay:10.37,2013-07-21 23:28:00,
2013-07-21 13:33:00,83.3,70.3,29.94,East,90,8.5,10.4,65,0.00,CLR,,0.11,WeatherDisplay:10.37,2013-07-21 23:33:00,
2013-07-21 13:38:00,82.9,69.9,29.94,North,360,8.4,10.4,65,0.00,CLR,,0.11,WeatherDisplay:10.37,2013-07-21 23:38:00,
2013-07-21 13:43:00,84.2,70.7,29.94,East,90,6.7,10.4,64,0.00,CLR,,0.11,WeatherDisplay:10.37,2013-07-21 23:43:00,
2013-07-21 13:48:00,82.8,69.8,29.94,NE,45,9.3,10.4,65,0.00,CLR,,0.11,WeatherDisplay:10.37,2013-07-21 23:48:00,
2013-07-21 13:53:00,84.0,71.4,29.94,WNW,292,6.7,8.1,66,0.00,CLR,,0.11,WeatherDisplay:10.37,2013-07-21 23:53:00,
2013-07-21 13:58:00,83.5,70.5,29.94,WSW,248,6.0,9.2,65,0.00,CLR,,0.11,WeatherDisplay:10.37,2013-07-21 23:58:00,
2013-07-21 14:03:00,82.9,70.4,29.93,NNE,22,7.7,8.1,66,0.00,CLR,,0.11,WeatherDisplay:10.37,2013-07-22 00:03:00,
2013-07-21 14:09:00,83.7,71.1,29.93,North,360,9.6,9.6,66,0.00,CLR,,0.11,WeatherDisplay:10.37,2013-07-22 00:09:00,
2013-07-21 14:14:00,83.1,69.7,29.93,ENE,68,6.9,8.3,64,0.00,CLR,,0.11,WeatherDisplay:10.37,2013-07-22 00:14:00,
2013-07-21 14:19:00,84.0,71.0,29.93,NNE,22,6.0,9.2,65,0.00,CLR,,0.11,WeatherDisplay:10.37,2013-07-22 00:19:00,
2013-07-21 14:24:00,84.6,71.1,29.93,East,90,6.7,8.1,64,0.00,CLR,,0.11,WeatherDisplay:10.37,2013-07-22 00:24:00,
2013-07-21 14:29:00,84.6,70.1,29.93,West,270,7.7,8.3,62,0.00,CLR,,0.11,WeatherDisplay:10.37,2013-07-22 00:29:00,
2013-07-21 14:34:00,84.6,70.1,29.93,North,360,5.6,6.9,62,0.00,CLR,,0.11,WeatherDisplay:10.37,2013-07-22 00:34:00,
2013-07-21 14:39:00,84.0,70.5,29.93,SE,135,7.5,7.5,64,0.00,CLR,,0.11,WeatherDisplay:10.37,2013-07-22 00:39:00,
2013-07-21 14:45:00,81.9,70.3,29.93,East,90,6.3,9.2,68,0.00,CLR,,0.11,WeatherDisplay:10.37,2013-07-22 00:45:00,
2013-07-21 14:50:00,82.8,70.7,29.93,East,90,6.4,6.9,67,0.00,CLR,,0.11,WeatherDisplay:10.37,2013-07-22 00:50:00,
2013-07-21 14:55:00,82.9,71.7,29.93,West,270,7.6,9.2,69,0.00,CLR,,0.11,WeatherDisplay:10.37,2013-07-22 00:55:00,
2013-07-21 15:00:00,82.2,68.8,29.93,East,90,8.6,10.4,64,0.00,CLR,,0.11,WeatherDisplay:10.37,2013-07-22 01:00:00,
2013-07-21 15:05:00,81.1,68.7,29.93,NW,315,6.9,9.2,66,0.00,CLR,,0.11,WeatherDisplay:10.37,2013-07-22 01:05:00,
2013-07-21 15:10:00,82.8,70.3,29.93,East,90,9.1,10.4,66,0.00,CLR,,0.11,WeatherDisplay:10.37,2013-07-22 01:10:00,
2013-07-21 15:15:00,83.5,70.5,29.93,East,90,8.2,9.2,65,0.00,CLR,,0.11,WeatherDisplay:10.37,2013-07-22 01:15:00,
2013-07-21 15:20:00,82.9,69.9,29.93,ESE,112,8.1,8.1,65,0.00,CLR,,0.11,WeatherDisplay:10.37,2013-07-22 01:20:00,
2013-07-21 15:25:00,81.9,69.4,29.92,ESE,112,10.1,10.9,66,0.00,CLR,,0.11,WeatherDisplay:10.37,2013-07-22 01:25:00,
2013-07-21 15:30:00,82.8,71.2,29.92,ESE,112,8.1,10.4,68,0.00,CLR,,0.11,WeatherDisplay:10.37,2013-07-22 01:30:00,
2013-07-21 15:35:00,83.5,70.5,29.93,NNE,22,5.3,9.2,65,0.00,CLR,,0.11,WeatherDisplay:10.37,2013-07-22 01:35:00,
2013-07-21 15:40:00,82.9,69.9,29.93,ESE,112,7.2,9.4,65,0.00,CLR,,0.11,WeatherDisplay:10.37,2013-07-22 01:40:00,
2013-07-21 15:45:00,82.8,70.3,29.93,NNE,22,4.8,9.2,66,0.00,CLR,,0.11,WeatherDisplay:10.37,2013-07-22 01:45:00,
2013-07-21 15:50:00,83.8,70.8,29.93,NNW,338,3.7,6.9,65,0.00,CLR,,0.11,WeatherDisplay:10.37,2013-07-22 01:50:00,
2013-07-21 15:55:00,82.0,69.5,29.93,ESE,112,7.9,11.5,66,0.00,CLR,,0.11,WeatherDisplay:10.37,2013-07-22 01:55:00,
2013-07-21 16:01:00,82.4,70.8,29.93,West,270,6.1,9.9,68,0.00,CLR,,0.11,WeatherDisplay:10.37,2013-07-22 02:01:00,
2013-07-21 16:06:00,83.3,70.3,29.93,East,90,9.9,10.4,65,0.00,CLR,,0.11,WeatherDisplay:10.37,2013-07-22 02:06:00,
2013-07-21 16:11:00,83.3,70.3,29.93,East,90,9.9,10.4,65,0.00,CLR,,0.11,WeatherDisplay:10.37,2013-07-22 02:11:00,
2013-07-21 16:16:00,83.7,71.6,29.93,SE,135,6.5,6.9,67,0.00,CLR,,0.11,WeatherDisplay:10.37,2013-07-22 02:16:00,
2013-07-21 16:21:00,82.8,70.3,29.93,East,90,8.4,10.4,66,0.00,CLR,,0.11,WeatherDisplay:10.37,2013-07-22 02:21:00,
2013-07-21 16:26:00,82.0,69.1,29.93,NNE,22,6.6,8.1,65,0.00,CLR,,0.11,WeatherDisplay:10.37,2013-07-22 02:26:00,
2013-07-21 16:31:00,82.4,70.3,29.93,East,90,6.5,9.2,67,0.00,CLR,,0.11,WeatherDisplay:10.37,2013-07-22 02:31:00,
2013-07-21 16:36:00,81.0,69.4,29.93,NE,45,8.0,10.4,68,0.00,CLR,,0.11,WeatherDisplay:10.37,2013-07-22 02:36:00,
2013-07-21 16:41:00,81.7,71.0,29.93,North,360,7.0,7.8,70,0.00,CLR,,0.11,WeatherDisplay:10.37,2013-07-22 02:41:00,
2013-07-21 16:46:00,80.4,69.7,29.93,ENE,68,6.5,9.2,70,0.00,CLR,,0.11,WeatherDisplay:10.37,2013-07-22 02:46:00,
2013-07-21 16:51:00,80.1,69.8,29.93,NNE,22,6.4,8.1,71,0.00,CLR,,0.11,WeatherDisplay:10.37,2013-07-22 02:51:00,
2013-07-21 16:56:00,79.7,69.5,29.93,NE,45,6.6,8.1,71,0.00,CLR,,0.11,WeatherDisplay:10.37,2013-07-22 02:56:00,
2013-07-21 17:01:00,80.1,69.4,29.93,NE,45,7.0,8.3,70,0.00,CLR,,0.11,WeatherDisplay:10.37,2013-07-22 03:01:00,
2013-07-21 17:06:00,79.7,69.9,29.93,West,270,5.8,9.2,72,0.00,CLR,,0.11,WeatherDisplay:10.37,2013-07-22 03:06:00,
2013-07-21 17:11:00,79.7,69.9,29.93,NE,45,8.1,9.4,72,0.00,CLR,,0.11,WeatherDisplay:10.37,2013-07-22 03:11:00,
2013-07-21 17:16:00,79.7,69.9,29.93,NE,45,5.4,6.9,72,0.00,CLR,,0.11,WeatherDisplay:10.37,2013-07-22 03:16:00,
2013-07-21 17:22:00,79.5,70.1,29.93,ENE,68,7.2,10.4,73,0.00,CLR,,0.11,WeatherDisplay:10.37,2013-07-22 03:22:00,
2013-07-21 17:27:00,78.8,69.4,29.93,ESE,112,6.3,9.4,73,0.00,CLR,,0.11,WeatherDisplay:10.37,2013-07-22 03:27:00,
2013-07-21 17:32:00,78.8,69.4,29.93,East,90,6.5,6.9,73,0.00,CLR,,0.11,WeatherDisplay:10.37,2013-07-22 03:32:00,
2013-07-21 17:37:00,78.6,69.2,29.93,ENE,68,5.5,5.8,73,0.00,CLR,,0.11,WeatherDisplay:10.37,2013-07-22 03:37:00,
2013-07-21 17:42:00,78.8,69.4,29.93,NW,315,5.1,6.9,73,0.00,CLR,,0.11,WeatherDisplay:10.37,2013-07-22 03:42:00,
2013-07-21 17:47:00,79.3,69.9,29.93,SSW,202,3.7,4.6,73,0.00,CLR,,0.11,WeatherDisplay:10.37,2013-07-22 03:47:00,
2013-07-21 17:52:00,79.5,69.3,29.93,ESE,112,6.4,6.9,71,0.00,CLR,,0.11,WeatherDisplay:10.37,2013-07-22 03:52:00,
2013-07-21 17:57:00,78.8,68.6,29.93,NNW,338,5.5,6.3,71,0.00,CLR,,0.11,WeatherDisplay:10.37,2013-07-22 03:57:00,
2013-07-21 18:01:00,79.3,69.5,29.94,SW,225,3.5,4.6,72,0.00,CLR,,0.11,WeatherDisplay:10.37,2013-07-22 04:01:00,
2013-07-21 18:06:00,79.3,69.5,29.94,ENE,68,7.8,8.8,72,0.00,CLR,,0.11,WeatherDisplay:10.37,2013-07-22 04:06:00,
2013-07-21 18:11:00,79.2,69.4,29.94,East,90,6.8,8.1,72,0.00,CLR,,0.11,WeatherDisplay:10.37,2013-07-22 04:11:00,
2013-07-21 18:16:00,78.8,69.4,29.94,NNE,22,5.1,6.9,73,0.00,CLR,,0.11,WeatherDisplay:10.37,2013-07-22 04:16:00,
2013-07-21 18:21:00,78.6,69.2,29.94,ESE,112,6.1,6.1,73,0.00,CLR,,0.11,WeatherDisplay:10.37,2013-07-22 04:21:00,
2013-07-21 18:26:00,78.8,69.4,29.94,NW,315,4.2,7.3,73,0.00,CLR,,0.11,WeatherDisplay:10.37,2013-07-22 04:26:00,
2013-07-21 18:32:00,78.4,69.0,29.94,North,360,3.8,4.6,73,0.00,CLR,,0.11,WeatherDisplay:10.37,2013-07-22 04:32:00,
2013-07-21 18:37:00,78.4,69.0,29.95,NE,45,6.7,8.3,73,0.00,CLR,,0.11,WeatherDisplay:10.37,2013-07-22 04:37:00,
2013-07-21 18:42:00,78.4,69.0,29.95,NE,45,2.8,4.6,73,0.00,CLR,,0.11,WeatherDisplay:10.37,2013-07-22 04:42:00,
2013-07-21 18:47:00,78.3,68.9,29.95,NE,45,5.1,5.8,73,0.00,CLR,,0.11,WeatherDisplay:10.37,2013-07-22 04:47:00,
2013-07-21 18:52:00,78.3,69.3,29.95,ESE,112,2.9,3.5,74,0.00,CLR,,0.11,WeatherDisplay:10.37,2013-07-22 04:52:00,
2013-07-21 18:57:00,77.9,69.3,29.95,NE,45,3.7,4.6,75,0.00,CLR,,0.11,WeatherDisplay:10.37,2013-07-22 04:57:00,
2013-07-21 19:02:00,77.9,69.3,29.96,NNE,22,5.6,6.9,75,0.00,CLR,,0.11,WeatherDisplay:10.37,2013-07-22 05:02:00,
2013-07-21 19:07:00,77.7,69.1,29.96,NE,45,6.0,6.9,75,0.00,CLR,,0.11,WeatherDisplay:10.37,2013-07-22 05:07:00,
2013-07-21 19:12:00,77.7,69.1,29.96,East,90,4.6,5.8,75,0.00,CLR,,0.11,WeatherDisplay:10.37,2013-07-22 05:12:00,
2013-07-21 19:17:00,77.4,68.9,29.96,NW,315,3.3,4.6,75,0.00,CLR,,0.11,WeatherDisplay:10.37,2013-07-22 05:17:00,
2013-07-21 19:22:00,77.2,69.0,29.96,WNW,292,5.0,5.8,76,0.00,CLR,,0.11,WeatherDisplay:10.37,2013-07-22 05:22:00,
2013-07-21 19:27:00,77.2,69.0,29.97,North,360,3.7,5.8,76,0.00,CLR,,0.11,WeatherDisplay:10.37,2013-07-22 05:27:00,
2013-07-21 19:32:00,77.0,68.9,29.97,NE,45,4.2,5.3,76,0.00,CLR,,0.11,WeatherDisplay:10.37,2013-07-22 05:32:00,
2013-07-21 19:37:00,77.0,68.9,29.97,North,360,4.0,5.8,76,0.00,CLR,,0.11,WeatherDisplay:10.37,2013-07-22 05:37:00,
2013-07-21 19:43:00,77.0,69.2,29.97,NNE,22,4.6,5.8,77,0.00,CLR,,0.11,WeatherDisplay:10.37,2013-07-22 05:43:00,
2013-07-21 19:48:00,76.6,68.8,29.97,ESE,112,4.8,5.8,77,0.00,CLR,,0.11,WeatherDisplay:10.37,2013-07-22 05:48:00,
2013-07-21 19:53:00,76.6,68.8,29.97,WNW,292,2.2,2.3,77,0.00,CLR,,0.11,WeatherDisplay:10.37,2013-07-22 05:53:00,
2013-07-21 19:58:00,76.6,68.8,29.97,WNW,292,2.2,2.3,77,0.00,CLR,,0.11,WeatherDisplay:10.37,2013-07-22 05:58:00,
2013-07-21 20:03:00,76.6,68.8,29.97,WNW,292,2.2,2.3,77,0.00,CLR,,0.11,WeatherDisplay:10.37,2013-07-22 06:03:00,
2013-07-21 20:08:00,76.6,68.8,29.97,WNW,292,2.2,2.3,77,0.00,CLR,,0.11,WeatherDisplay:10.37,2013-07-22 06:08:00,
2013-07-21 20:13:00,76.6,68.8,29.97,WNW,292,2.2,2.3,77,0.00,CLR,,0.11,WeatherDisplay:10.37,2013-07-22 06:13:00,
2013-07-21 20:18:00,76.6,68.8,29.97,WNW,292,2.2,2.3,77,0.00,CLR,,0.11,WeatherDisplay:10.37,2013-07-22 06:18:00,
2013-07-21 20:23:00,76.6,68.8,29.97,WNW,292,2.2,2.3,77,0.00,CLR,,0.11,WeatherDisplay:10.37,2013-07-22 06:23:00,
2013-07-21 20:28:00,76.3,69.3,29.98,NNW,338,3.5,3.5,79,0.00,CLR,,0.11,WeatherDisplay:10.37,2013-07-22 06:28:00,
2013-07-21 20:33:00,76.1,69.1,29.98,NNW,338,3.3,4.2,79,0.00,CLR,,0.11,WeatherDisplay:10.37,2013-07-22 06:33:00,
2013-07-21 20:38:00,76.3,69.3,29.98,West,270,4.2,4.6,79,0.00,CLR,,0.11,WeatherDisplay:10.37,2013-07-22 06:38:00,
2013-07-21 20:43:00,76.3,69.3,29.98,West,270,4.2,4.6,79,0.00,CLR,,0.11,WeatherDisplay:10.37,2013-07-22 06:43:00,
2013-07-21 20:49:00,76.3,69.3,29.99,NNW,338,2.7,3.5,79,0.00,CLR,,0.11,WeatherDisplay:10.37,2013-07-22 06:49:00,
2013-07-21 20:54:00,76.3,69.3,29.99,NNE,22,2.5,3.5,79,0.00,CLR,,0.11,WeatherDisplay:10.37,2013-07-22 06:54:00,
2013-07-21 20:59:00,76.3,69.3,29.98,NNE,22,3.6,5.8,79,0.00,CLR,,0.11,WeatherDisplay:10.37,2013-07-22 06:59:00,
2013-07-21 21:04:00,76.3,69.3,29.98,North,360,3.3,5.8,79,0.00,CLR,,0.11,WeatherDisplay:10.37,2013-07-22 07:04:00,
2013-07-21 21:09:00,76.1,69.1,29.98,North,360,2.8,3.2,79,0.00,CLR,,0.11,WeatherDisplay:10.37,2013-07-22 07:09:00,
2013-07-21 21:14:00,76.1,69.1,29.99,WNW,292,3.4,3.5,79,0.00,CLR,,0.11,WeatherDisplay:10.37,2013-07-22 07:14:00,
2013-07-21 21:19:00,76.1,69.1,29.99,NW,315,2.5,3.5,79,0.00,CLR,,0.11,WeatherDisplay:10.37,2013-07-22 07:19:00,
2013-07-21 21:24:00,76.1,69.1,29.98,NNW,338,3.0,3.5,79,0.00,CLR,,0.11,WeatherDisplay:10.37,2013-07-22 07:24:00,
2013-07-21 21:29:00,75.9,68.9,29.98,North,360,3.5,4.7,79,0.00,CLR,,0.11,WeatherDisplay:10.37,2013-07-22 07:29:00,
2013-07-21 21:34:00,75.9,68.9,29.98,NNE,22,2.9,2.9,79,0.00,CLR,,0.11,WeatherDisplay:10.37,2013-07-22 07:34:00,
2013-07-21 21:39:00,75.9,68.9,29.99,WNW,292,2.8,2.8,79,0.00,CLR,,0.11,WeatherDisplay:10.37,2013-07-22 07:39:00,
2013-07-21 21:45:00,75.9,69.3,29.99,NNW,338,3.2,3.5,80,0.00,CLR,,0.11,WeatherDisplay:10.37,2013-07-22 07:45:00,
2013-07-21 21:50:00,75.9,69.3,29.99,WNW,292,2.1,3.5,80,0.00,CLR,,0.11,WeatherDisplay:10.37,2013-07-22 07:50:00,
2013-07-21 21:55:00,75.9,69.3,29.99,NNE,22,2.0,2.3,80,0.00,CLR,,0.11,WeatherDisplay:10.37,2013-07-22 07:55:00,
2013-07-21 22:00:00,75.9,69.3,30.00,WNW,292,4.2,4.6,80,0.00,CLR,,0.11,WeatherDisplay:10.37,2013-07-22 08:00:00,
2013-07-21 22:05:00,75.7,69.1,30.00,East,90,2.6,3.5,80,0.00,CLR,,0.11,WeatherDisplay:10.37,2013-07-22 08:05:00,
2013-07-21 22:10:00,75.7,69.1,30.00,North,360,3.3,3.5,80,0.00,CLR,,0.11,WeatherDisplay:10.37,2013-07-22 08:10:00,
2013-07-21 22:15:00,75.7,69.1,30.00,WNW,292,3.1,3.5,80,0.00,CLR,,0.11,WeatherDisplay:10.37,2013-07-22 08:15:00,
2013-07-21 22:20:00,75.7,69.1,30.00,NW,315,2.3,2.3,80,0.00,CLR,,0.11,WeatherDisplay:10.37,2013-07-22 08:20:00,
2013-07-21 22:25:00,75.7,69.1,30.00,NNE,22,1.6,2.7,80,0.00,CLR,,0.11,WeatherDisplay:10.37,2013-07-22 08:25:00,
2013-07-21 22:30:00,75.7,69.5,30.00,NNE,22,2.0,3.2,81,0.00,CLR,,0.11,WeatherDisplay:10.37,2013-07-22 08:30:00,
2013-07-21 22:35:00,75.7,69.5,30.00,NNE,22,2.0,2.3,81,0.00,CLR,,0.11,WeatherDisplay:10.37,2013-07-22 08:35:00,
2013-07-21 22:40:00,75.7,69.5,30.00,NNW,338,1.8,2.3,81,0.00,CLR,,0.11,WeatherDisplay:10.37,2013-07-22 08:40:00,
2013-07-21 22:45:00,75.7,69.5,30.00,South,180,2.4,4.6,81,0.00,CLR,,0.11,WeatherDisplay:10.37,2013-07-22 08:45:00,
2013-07-21 22:50:00,75.7,69.1,30.00,NNE,22,2.0,2.3,80,0.00,CLR,,0.11,WeatherDisplay:10.37,2013-07-22 08:50:00,
2013-07-21 22:56:00,75.7,69.1,30.00,NW,315,1.9,2.3,80,0.00,CLR,,0.11,WeatherDisplay:10.37,2013-07-22 08:56:00,
2013-07-21 23:01:00,75.7,69.1,30.00,NNW,338,2.0,2.3,80,0.00,CLR,,0.11,WeatherDisplay:10.37,2013-07-22 09:01:00,
2013-07-21 23:06:00,75.6,69.4,30.00,NE,45,1.4,2.3,81,0.00,CLR,,0.11,WeatherDisplay:10.37,2013-07-22 09:06:00,
2013-07-21 23:11:00,75.4,69.2,29.99,West,270,0.0,1.2,81,0.00,CLR,,0.11,WeatherDisplay:10.37,2013-07-22 09:11:00,
2013-07-21 23:16:00,75.4,69.2,29.99,SSW,202,0.5,1.2,81,0.00,CLR,,0.11,WeatherDisplay:10.37,2013-07-22 09:16:00,
2013-07-21 23:21:00,75.2,69.0,29.99,NNE,22,1.8,2.7,81,0.00,CLR,,0.11,WeatherDisplay:10.37,2013-07-22 09:21:00,
2013-07-21 23:26:00,75.2,69.3,29.99,NNW,338,2.0,2.3,82,0.00,CLR,,0.11,WeatherDisplay:10.37,2013-07-22 09:26:00,
2013-07-21 23:31:00,75.4,69.5,29.99,WNW,292,2.3,3.2,82,0.00,CLR,,0.11,WeatherDisplay:10.37,2013-07-22 09:31:00,
2013-07-21 23:36:00,75.6,69.7,29.99,NNW,338,2.7,4.6,82,0.00,CLR,,0.11,WeatherDisplay:10.37,2013-07-22 09:36:00,
2013-07-21 23:41:00,75.7,69.8,29.99,WNW,292,1.1,3.5,82,0.00,CLR,,0.11,WeatherDisplay:10.37,2013-07-22 09:41:00,
2013-07-21 23:46:00,75.7,69.8,29.99,NE,45,1.1,3.5,82,0.00,CLR,,0.11,WeatherDisplay:10.37,2013-07-22 09:46:00,
2013-07-21 23:51:00,75.7,69.8,29.99,NW,315,2.9,3.5,82,0.00,CLR,,0.11,WeatherDisplay:10.37,2013-07-22 09:51:00,
2013-07-21 23:56:00,75.9,70.0,29.99,NNW,338,2.6,4.6,82,0.00,CLR,,0.11,WeatherDisplay:10.37,2013-07-22 09:56:00,